Observations for GLASGOW AIRPORT, United Kingdom (EGPF)

EGPF 220520Z AUTO 08009KT 9999 OVC013 15/13 Q1018   
EGPF 220450Z AUTO 07008KT 9999 OVC014 15/13 Q1018   
EGPF 220420Z AUTO 08008KT 9999 OVC015 15/13 Q1018   
EGPF 220350Z AUTO 08007KT 9999 OVC016 15/13 Q1018   
EGPF 220320Z AUTO 08008KT 9999 -RA OVC018 15/13 Q1019   
EGPF 220250Z AUTO 07008KT 9999 OVC017 15/13 Q1019   
EGPF 220220Z AUTO 07008KT 9999 OVC018 15/13 Q1019   
EGPF 220150Z AUTO 08005KT 9999 OVC018 15/13 Q1019   
EGPF 220120Z AUTO 07007KT 9999 OVC018 15/13 Q1019   
EGPF 220050Z AUTO 07008KT 9999 OVC021 15/13 Q1019   
EGPF 220020Z AUTO 06006KT 9999 -RA OVC021 15/13 Q1019   
EGPF 212350Z AUTO VRB03KT 9999 -RA OVC019 15/13 Q1019   
EGPF 212320Z AUTO 08005KT 9999 -RA FEW022 15/12 Q1019   
EGPF 212250Z AUTO 07006KT 9999 -RA FEW038 15/12 Q1019   
EGPF 212220Z AUTO 07007KT 9999 FEW036 15/12 Q1019   
EGPF 212150Z AUTO 06005KT 9999 -RA SCT035 BKN048 15/12 Q1019
EGPF 212120Z AUTO 06007KT 010V080 9999 BKN024 OVC036 16/12 Q1019
EGPF 212050Z AUTO 06007KT 9999 OVC022 16/12 Q1019   
EGPF 212020Z AUTO 06006KT 040V100 9999 -RA BKN023 OVC035 17/13 Q1019
EGPF 211950Z AUTO VRB02KT 9999 BKN033 OVC042 17/14 Q1019
EGPF 211920Z AUTO 18003KT 9999 OVC029 17/13 Q1019   
EGPF 211850Z AUTO 16003KT 9999 FEW023 OVC037 18/14 Q1019
EGPF 211820Z AUTO 18004KT 9999 BKN023 BKN029 OVC038 18/14 Q1019 
EGPF 211750Z AUTO VRB02KT 9999 BKN023 BKN028 OVC039 18/14 Q1019 
EGPF 211720Z AUTO VRB04KT 9999 BKN026 OVC041 18/14 Q1019
EGPF 211650Z AUTO 06006KT 9999 SCT030 BKN042 18/13 Q1019
EGPF 211620Z AUTO 06006KT 9999 BKN032 BKN044 18/13 Q1019
EGPF 211550Z AUTO 06007KT 9999 BKN044 18/13 Q1019   
EGPF 211520Z AUTO 05006KT 020V080 9999 BKN035 OVC044 18/13 Q1019
EGPF 211450Z AUTO 05005KT 360V100 9999 SCT033 BKN045 18/13 Q1019
EGPF 211420Z AUTO 04006KT 9999 -RA NCD 18/13 Q1019  
EGPF 211350Z AUTO 05006KT 010V080 9999 -RA BKN030 18/12 Q1019   
EGPF 211320Z AUTO 06005KT 020V100 9999 -RA BKN030 18/12 Q1020   
EGPF 211250Z AUTO 05007KT 9999 BKN029 17/12 Q1020   
EGPF 211220Z AUTO 04005KT 010V080 9999 OVC028 16/12 Q1020   
EGPF 211150Z AUTO 02005KT 9999 BKN029 OVC047 16/12 Q1020
EGPF 211120Z AUTO 04005KT 9999 BKN030 16/11 Q1020   
EGPF 211050Z AUTO VRB03KT 9999 NCD 16/11 Q1021  
EGPF 211020Z AUTO 09004KT 050V140 9999 NCD 15/11 Q1021  
EGPF 210950Z AUTO VRB03KT 9999 SCT045 15/11 Q1021   
EGPF 210920Z AUTO VRB02KT 9999 FEW035 14/11 Q1021   
EGPF 210850Z AUTO VRB03KT 9999 SCT034 12/10 Q1021   
EGPF 210820Z AUTO VRB02KT 9999 BKN030 11/09 Q1021   
EGPF 210750Z AUTO VRB02KT 9999 BKN029 OVC045 10/09 Q1021
EGPF 210720Z AUTO 07006KT 040V100 9999 BKN029 OVC039 10/09 Q1021
EGPF 210650Z AUTO 03003KT 9999 OVC028 09/09 Q1021   
EGPF 210620Z AUTO VRB01KT 9999 OVC030 08/08 Q1021   
EGPF 210550Z AUTO VRB01KT 9999 OVC032 07/07 Q1021   
EGPF 210520Z AUTO 25004KT 9999 BKN041 06/06 Q1021   
EGPF 210450Z AUTO 23001KT 9999 OVC040 05/05 Q1021